Time;durP1;ratioP1;P1;durP2;ratioP2;P2;SDS_P1;SDS_P2;PMS_P1;PMS_P2;Temp;Humidity;BMP_temperature;BMP_pressure;BME280_temperature;BME280_humidity;BME280_pressure;Samples;Min_cycle;Max_cycle;Signal;HPM_P1;HPM_P2
2024/01/12 00:00:46;;;;;;;21.30;10.02;;;0.70;99.90;;;;;;5014548;28;20034;-73
2024/01/12 00:03:12;;;;;;;18.15;8.40;;;0.70;99.90;;;;;;5010920;28;20069;-73
2024/01/12 00:05:37;;;;;;;15.57;8.80;;;0.70;99.90;;;;;;5016033;28;20049;-74
2024/01/12 00:08:04;;;;;;;17.98;8.35;;;0.70;99.90;;;;;;4997391;28;20057;-74
2024/01/12 00:10:29;;;;;;;17.55;8.88;;;0.70;99.90;;;;;;5016218;28;20045;-74
2024/01/12 00:12:55;;;;;;;21.45;9.15;;;0.70;99.90;;;;;;5012632;28;20052;-73
2024/01/12 00:15:21;;;;;;;26.08;9.70;;;0.70;99.90;;;;;;5024101;28;21679;-74
2024/01/12 00:17:46;;;;;;;19.88;7.55;;;0.70;99.90;;;;;;5022022;28;20114;-73
2024/01/12 00:20:12;;;;;;;20.80;8.93;;;0.70;99.90;;;;;;5028142;28;20045;-74
2024/01/12 00:22:38;;;;;;;31.33;10.82;;;0.70;99.90;;;;;;5005126;28;20034;-73
2024/01/12 00:25:04;;;;;;;20.83;8.75;;;0.70;99.90;;;;;;4999289;28;20041;-73
2024/01/12 00:27:30;;;;;;;14.65;7.35;;;0.70;99.90;;;;;;5021158;28;20055;-73
2024/01/12 00:29:55;;;;;;;12.80;5.53;;;0.70;99.90;;;;;;5022061;28;20081;-74
2024/01/12 00:32:21;;;;;;;17.90;8.23;;;0.70;99.90;;;;;;5005895;28;20064;-74
2024/01/12 00:34:47;;;;;;;18.10;8.23;;;0.70;99.90;;;;;;5004584;28;20111;-74
2024/01/12 00:37:12;;;;;;;17.85;9.07;;;0.70;99.90;;;;;;5021631;28;20085;-73
2024/01/12 00:39:38;;;;;;;23.85;9.23;;;0.70;99.90;;;;;;5002381;28;20038;-74
2024/01/12 00:42:05;;;;;;;19.00;7.80;;;0.70;99.90;;;;;;5029380;28;20038;-73
2024/01/12 00:44:30;;;;;;;16.10;7.63;;;0.70;99.90;;;;;;5034840;28;20049;-73
2024/01/12 00:46:56;;;;;;;17.02;6.75;;;0.70;99.90;;;;;;5004491;28;20040;-73
2024/01/12 00:49:22;;;;;;;16.08;8.63;;;0.70;99.90;;;;;;5000272;28;20107;-73
2024/01/12 00:51:48;;;;;;;19.33;7.22;;;0.70;99.90;;;;;;5011882;28;20411;-73
2024/01/12 00:54:14;;;;;;;24.35;8.68;;;0.70;99.90;;;;;;4996219;28;20042;-73
2024/01/12 00:56:40;;;;;;;21.17;7.10;;;0.70;99.90;;;;;;5011398;28;20060;-73
2024/01/12 00:59:06;;;;;;;17.00;7.57;;;0.70;99.90;;;;;;4993066;28;21234;-74
2024/01/12 01:01:33;;;;;;;13.75;6.90;;;0.70;99.90;;;;;;5014766;28;20458;-73
2024/01/12 01:04:00;;;;;;;17.15;5.90;;;0.80;99.90;;;;;;4988046;28;20034;-73
2024/01/12 01:06:26;;;;;;;17.42;7.68;;;0.80;99.90;;;;;;5007345;28;20527;-74
2024/01/12 01:08:52;;;;;;;12.40;6.60;;;0.80;99.90;;;;;;4995991;28;20048;-73
2024/01/12 01:11:18;;;;;;;20.05;7.28;;;0.80;99.90;;;;;;5019855;28;20128;-73
2024/01/12 01:13:43;;;;;;;16.55;6.85;;;0.80;99.90;;;;;;5031816;28;20113;-73
2024/01/12 01:16:10;;;;;;;18.50;5.80;;;0.90;99.90;;;;;;5026811;28;20049;-73
2024/01/12 01:18:36;;;;;;;11.35;6.13;;;0.90;99.90;;;;;;5000742;28;20079;-73
2024/01/12 01:21:02;;;;;;;16.67;6.80;;;1.10;99.90;;;;;;5019463;28;20045;-73
2024/01/12 01:23:27;;;;;;;20.38;8.30;;;0.90;99.90;;;;;;5018258;28;20520;-74
2024/01/12 01:25:54;;;;;;;14.65;6.93;;;0.90;99.90;;;;;;5011580;28;20046;-74
2024/01/12 01:28:20;;;;;;;16.52;7.20;;;0.90;99.90;;;;;;4994682;28;20092;-74
2024/01/12 01:30:46;;;;;;;18.63;8.63;;;0.90;99.90;;;;;;5025873;28;20499;-74
2024/01/12 01:33:12;;;;;;;12.38;6.00;;;0.90;99.90;;;;;;5017379;28;20045;-74
2024/01/12 01:35:37;;;;;;;11.40;6.57;;;0.90;99.90;;;;;;5000088;28;20021;-74
2024/01/12 01:38:03;;;;;;;15.18;4.68;;;0.90;99.90;;;;;;5009482;28;20523;-74
2024/01/12 01:40:30;;;;;;;19.15;5.47;;;0.90;99.90;;;;;;4993617;28;20085;-74
2024/01/12 01:42:56;;;;;;;17.50;7.25;;;1.00;99.90;;;;;;5008446;28;20100;-74
2024/01/12 01:45:21;;;;;;;13.85;6.53;;;1.00;99.90;;;;;;4991457;28;20073;-74
2024/01/12 01:47:48;;;;;;;17.70;6.50;;;1.00;99.90;;;;;;4977678;28;20044;-73
2024/01/12 01:50:15;;;;;;;15.35;6.07;;;1.10;99.90;;;;;;5025280;28;20045;-74
2024/01/12 01:52:44;;;;;;;20.23;6.05;;;1.00;99.90;;;;;;5019098;28;20083;-73
2024/01/12 01:55:14;;;;;;;11.30;4.50;;;1.10;99.90;;;;;;5003895;28;20064;-74
2024/01/12 01:57:42;;;;;;;18.17;6.25;;;1.10;99.90;;;;;;5027337;28;20046;-74
2024/01/12 02:00:11;;;;;;;8.00;4.10;;;1.00;99.90;;;;;;5015482;28;20042;-73
2024/01/12 02:02:38;;;;;;;9.45;5.15;;;1.10;99.90;;;;;;5011038;28;20041;-74
2024/01/12 02:05:07;;;;;;;7.43;4.05;;;1.20;99.90;;;;;;4998200;28;20052;-73
2024/01/12 02:07:34;;;;;;;16.52;5.63;;;1.20;99.90;;;;;;5010690;28;20442;-74
2024/01/12 02:09:59;;;;;;;6.35;3.38;;;1.20;99.90;;;;;;5024860;28;20056;-74
2024/01/12 02:12:25;;;;;;;12.02;4.72;;;1.20;99.90;;;;;;5028626;28;20448;-74
2024/01/12 02:14:51;;;;;;;15.40;3.38;;;1.30;99.90;;;;;;5010490;28;20049;-73
2024/01/12 02:17:17;;;;;;;10.05;4.72;;;1.30;99.90;;;;;;4983558;28;20053;-74
2024/01/12 02:19:42;;;;;;;4.45;2.58;;;1.40;99.90;;;;;;5031525;28;20128;-73
2024/01/12 02:22:08;;;;;;;16.25;3.45;;;1.40;99.90;;;;;;5019937;28;20511;-73
2024/01/12 02:24:34;;;;;;;13.23;4.28;;;1.40;99.90;;;;;;5024714;28;20050;-74
2024/01/12 02:26:59;;;;;;;5.45;3.25;;;1.40;99.90;;;;;;5009846;28;20057;-73
2024/01/12 02:29:25;;;;;;;7.43;3.85;;;1.40;99.90;;;;;;4999337;28;20055;-73
2024/01/12 02:31:52;;;;;;;6.20;3.75;;;1.40;99.90;;;;;;5018051;28;20047;-73
2024/01/12 02:34:18;;;;;;;5.30;3.30;;;1.50;99.90;;;;;;5024230;28;20041;-73
2024/01/12 02:36:43;;;;;;;6.38;2.97;;;1.50;99.90;;;;;;5015131;28;20088;-74
2024/01/12 02:39:10;;;;;;;5.63;2.90;;;1.50;99.90;;;;;;4998300;28;20046;-74
2024/01/12 02:41:35;;;;;;;9.93;2.95;;;1.50;99.90;;;;;;4991118;28;20038;-74
2024/01/12 02:44:01;;;;;;;9.15;3.03;;;1.50;99.90;;;;;;4997515;28;20052;-73
2024/01/12 02:46:27;;;;;;;6.95;2.83;;;1.50;99.90;;;;;;5030194;28;20046;-73
2024/01/12 02:48:52;;;;;;;10.18;2.63;;;1.60;99.90;;;;;;5027544;28;20046;-73
2024/01/12 02:51:18;;;;;;;5.03;2.67;;;1.50;99.90;;;;;;4999447;28;20421;-73
2024/01/12 02:53:44;;;;;;;6.35;2.88;;;1.60;99.90;;;;;;5016862;28;20041;-74
2024/01/12 02:56:10;;;;;;;18.52;3.20;;;1.60;99.90;;;;;;5010949;28;20045;-74
2024/01/12 02:58:36;;;;;;;5.22;2.78;;;1.60;99.90;;;;;;5000213;28;20045;-74
2024/01/12 03:01:02;;;;;;;5.25;2.22;;;1.60;99.90;;;;;;5014785;28;20054;-74
2024/01/12 03:03:28;;;;;;;10.77;2.40;;;1.60;99.90;;;;;;5011734;28;20096;-74
2024/01/12 03:05:53;;;;;;;6.25;2.00;;;1.60;99.90;;;;;;4982934;28;20053;-74
2024/01/12 03:08:19;;;;;;;4.32;2.08;;;1.60;99.90;;;;;;5001056;28;20060;-74
2024/01/12 03:10:45;;;;;;;6.15;2.30;;;1.70;99.90;;;;;;5023031;28;20037;-74
2024/01/12 03:13:10;;;;;;;7.82;2.40;;;1.70;99.90;;;;;;5006488;28;20045;-73
2024/01/12 03:15:36;;;;;;;4.28;1.67;;;1.70;99.90;;;;;;5020463;28;20054;-74
2024/01/12 03:18:02;;;;;;;3.08;2.08;;;1.70;99.90;;;;;;5007198;28;20037;-74
2024/01/12 03:20:28;;;;;;;5.30;2.17;;;1.70;99.90;;;;;;5004913;28;20129;-74
2024/01/12 03:22:54;;;;;;;6.28;2.63;;;1.70;99.90;;;;;;4986505;28;20069;-73
2024/01/12 03:25:20;;;;;;;2.70;1.95;;;1.70;99.90;;;;;;4996899;28;20048;-73
2024/01/12 03:27:45;;;;;;;9.90;2.13;;;1.70;99.90;;;;;;5011386;28;20048;-74
2024/01/12 03:30:11;;;;;;;2.22;1.55;;;1.60;99.90;;;;;;4982716;28;20164;-73
2024/01/12 03:32:37;;;;;;;5.13;1.75;;;1.60;99.90;;;;;;5029715;28;20071;-73
2024/01/12 03:35:03;;;;;;;4.15;1.42;;;1.60;99.90;;;;;;5039192;28;20138;-74
2024/01/12 03:37:29;;;;;;;3.55;2.13;;;1.60;99.90;;;;;;5016459;28;20149;-73
2024/01/12 03:39:55;;;;;;;3.88;1.90;;;1.60;99.90;;;;;;5015541;28;20077;-74
2024/01/12 03:42:20;;;;;;;2.78;2.03;;;1.60;99.90;;;;;;5018406;28;20041;-73
2024/01/12 03:44:46;;;;;;;2.65;1.95;;;1.60;99.90;;;;;;5007129;28;20102;-73
2024/01/12 03:47:12;;;;;;;7.75;2.15;;;1.60;99.90;;;;;;4993160;28;20053;-73
2024/01/12 03:49:37;;;;;;;3.38;1.83;;;1.50;99.90;;;;;;5012226;28;20126;-73
2024/01/12 03:52:03;;;;;;;2.60;1.25;;;1.60;99.90;;;;;;5012953;28;20049;-73
2024/01/12 03:54:29;;;;;;;3.85;1.73;;;1.50;99.90;;;;;;5010122;28;20049;-73
2024/01/12 03:56:55;;;;;;;2.33;1.75;;;1.50;99.90;;;;;;5012915;28;20056;-73
2024/01/12 03:59:21;;;;;;;5.32;1.95;;;1.60;99.90;;;;;;5007298;28;20045;-73
2024/01/12 04:01:47;;;;;;;1.52;1.42;;;1.50;99.90;;;;;;5013907;28;20033;-73
2024/01/12 04:04:13;;;;;;;4.63;2.08;;;1.50;99.90;;;;;;4994858;28;20141;-73
2024/01/12 04:06:40;;;;;;;6.95;1.83;;;1.50;99.90;;;;;;5018210;28;20058;-73
2024/01/12 04:09:06;;;;;;;7.07;2.25;;;1.50;99.90;;;;;;5026443;28;20070;-73
2024/01/12 04:11:32;;;;;;;2.72;1.60;;;1.40;99.90;;;;;;4996507;28;20041;-73
2024/01/12 04:13:57;;;;;;;11.90;2.30;;;1.50;99.90;;;;;;5021083;28;20041;-73
2024/01/12 04:16:23;;;;;;;8.50;1.73;;;1.40;99.90;;;;;;5004913;28;20054;-73
2024/01/12 04:18:49;;;;;;;2.90;1.75;;;1.50;99.90;;;;;;4988583;28;20085;-73
2024/01/12 04:21:14;;;;;;;16.92;2.35;;;1.50;99.90;;;;;;4995949;28;20045;-73
2024/01/12 04:23:40;;;;;;;14.30;2.67;;;1.50;99.90;;;;;;4999954;28;20053;-73
2024/01/12 04:26:06;;;;;;;2.90;1.98;;;1.50;99.90;;;;;;4989293;28;20494;-73
2024/01/12 04:28:32;;;;;;;4.13;1.33;;;1.50;99.90;;;;;;5015505;28;20049;-73
2024/01/12 04:31:00;;;;;;;11.05;2.90;;;1.50;99.90;;;;;;5020741;28;20473;-73
2024/01/12 04:33:26;;;;;;;5.68;1.98;;;1.50;99.90;;;;;;5036507;28;20046;-73
2024/01/12 04:35:51;;;;;;;5.55;1.95;;;1.50;99.90;;;;;;5015112;28;20051;-73
2024/01/12 04:38:17;;;;;;;5.97;1.58;;;1.50;99.90;;;;;;5002372;28;20046;-73
2024/01/12 04:40:43;;;;;;;3.15;1.83;;;1.40;99.90;;;;;;4988808;28;20049;-73
2024/01/12 04:43:08;;;;;;;2.85;1.25;;;1.30;99.90;;;;;;5016590;28;20033;-74
2024/01/12 04:45:34;;;;;;;6.70;1.63;;;1.20;99.90;;;;;;5018733;28;20041;-73
2024/01/12 04:47:59;;;;;;;2.67;2.10;;;1.20;99.90;;;;;;5022685;28;20080;-73
2024/01/12 04:50:25;;;;;;;4.18;2.05;;;1.20;99.90;;;;;;4999825;28;20046;-73
2024/01/12 04:52:52;;;;;;;3.25;1.45;;;1.10;99.90;;;;;;4986723;28;20079;-73
2024/01/12 04:55:18;;;;;;;8.77;1.95;;;1.20;99.90;;;;;;5020423;28;20049;-73
2024/01/12 04:57:44;;;;;;;4.88;2.67;;;1.20;99.90;;;;;;5005141;28;20045;-73
2024/01/12 05:00:10;;;;;;;3.92;1.38;;;1.20;99.90;;;;;;5021912;28;20115;-73
2024/01/12 05:02:36;;;;;;;8.35;2.00;;;1.20;99.90;;;;;;5015887;28;20099;-73
2024/01/12 05:05:04;;;;;;;15.52;2.63;;;1.30;99.90;;;;;;5018811;28;20034;-73
2024/01/12 05:07:30;;;;;;;8.23;2.08;;;1.30;99.90;;;;;;5020003;28;20053;-73
2024/01/12 05:09:56;;;;;;;8.68;1.80;;;1.30;99.90;;;;;;5022325;28;20068;-73
2024/01/12 05:12:22;;;;;;;2.55;1.63;;;1.20;99.90;;;;;;5006246;28;20041;-73
2024/01/12 05:14:48;;;;;;;4.30;2.08;;;1.30;99.90;;;;;;5021069;28;20049;-73
2024/01/12 05:17:14;;;;;;;10.70;2.00;;;1.30;99.90;;;;;;5022891;28;20447;-73
2024/01/12 05:19:39;;;;;;;4.05;1.90;;;1.30;99.90;;;;;;5015893;28;20082;-73
2024/01/12 05:22:05;;;;;;;5.75;2.00;;;1.30;99.90;;;;;;5038463;28;20428;-74
2024/01/12 05:24:31;;;;;;;7.82;2.45;;;1.30;99.90;;;;;;5004406;28;20046;-73
2024/01/12 05:26:57;;;;;;;4.45;1.90;;;1.30;99.90;;;;;;4989127;28;20127;-73
2024/01/12 05:29:22;;;;;;;8.88;2.72;;;1.40;99.90;;;;;;5020572;28;20100;-74
2024/01/12 05:31:48;;;;;;;6.03;2.30;;;1.40;99.90;;;;;;4985477;28;20038;-73
2024/01/12 05:34:14;;;;;;;6.78;2.30;;;1.30;99.90;;;;;;5015613;28;20100;-73
2024/01/12 05:36:39;;;;;;;6.55;2.38;;;1.40;99.90;;;;;;5013292;28;20196;-73
2024/01/12 05:39:05;;;;;;;6.32;2.53;;;1.40;99.90;;;;;;5004351;28;20129;-74
2024/01/12 05:41:32;;;;;;;9.48;2.30;;;1.40;99.90;;;;;;5031700;28;20110;-73
2024/01/12 05:43:57;;;;;;;6.32;1.95;;;1.40;99.90;;;;;;5012169;28;20052;-73
2024/01/12 05:46:23;;;;;;;11.00;2.13;;;1.50;99.90;;;;;;5017434;28;20033;-74
2024/01/12 05:48:49;;;;;;;4.60;2.40;;;1.50;99.90;;;;;;5003679;28;20045;-73
2024/01/12 05:51:17;;;;;;;7.47;2.40;;;1.50;99.90;;;;;;5013998;28;20029;-73
2024/01/12 05:53:44;;;;;;;2.60;1.95;;;1.60;99.90;;;;;;5004443;28;20042;-73
2024/01/12 05:56:10;;;;;;;3.83;1.10;;;1.60;99.90;;;;;;5020598;28;20049;-73
2024/01/12 05:58:35;;;;;;;8.55;2.28;;;1.60;99.90;;;;;;5015730;28;20095;-73
2024/01/12 06:01:01;;;;;;;3.88;1.90;;;1.60;99.90;;;;;;5017126;28;20038;-73
2024/01/12 06:03:29;;;;;;;4.93;2.33;;;1.60;99.90;;;;;;5018250;28;20045;-73
2024/01/12 06:05:56;;;;;;;7.38;2.15;;;1.60;99.90;;;;;;4995881;28;20051;-73
2024/01/12 06:08:21;;;;;;;3.67;1.55;;;1.60;99.90;;;;;;5037918;28;20443;-73
2024/01/12 06:10:47;;;;;;;6.72;2.08;;;1.70;99.90;;;;;;5033191;28;20071;-73
2024/01/12 06:13:13;;;;;;;11.73;1.65;;;1.70;99.90;;;;;;5020469;28;20037;-73
2024/01/12 06:15:39;;;;;;;14.18;2.65;;;1.70;99.90;;;;;;5036000;28;20068;-74
2024/01/12 06:18:05;;;;;;;9.75;2.08;;;1.70;99.90;;;;;;5016828;28;20053;-73
2024/01/12 06:20:31;;;;;;;2.85;1.70;;;1.70;99.90;;;;;;5018145;28;20053;-73
2024/01/12 06:22:57;;;;;;;9.15;1.77;;;1.70;99.90;;;;;;4996708;28;20076;-73
2024/01/12 06:25:23;;;;;;;8.35;2.38;;;1.70;99.90;;;;;;5005528;28;20029;-73
2024/01/12 06:27:49;;;;;;;3.58;2.13;;;1.70;99.90;;;;;;5021119;28;20045;-73
2024/01/12 06:30:15;;;;;;;8.38;1.65;;;1.60;99.90;;;;;;5004226;28;20076;-73
2024/01/12 06:32:41;;;;;;;3.50;1.38;;;1.60;99.90;;;;;;5011296;28;20054;-73
2024/01/12 06:35:11;;;;;;;8.15;2.25;;;1.60;99.90;;;;;;4989784;28;20124;-73
2024/01/12 06:37:37;;;;;;;6.60;2.00;;;1.60;99.90;;;;;;5003973;28;20073;-73
2024/01/12 06:40:04;;;;;;;3.28;1.45;;;1.70;99.90;;;;;;5016619;28;20029;-73
2024/01/12 06:42:31;;;;;;;6.32;1.73;;;1.60;99.90;;;;;;5017067;28;20060;-73
2024/01/12 06:44:57;;;;;;;7.70;2.35;;;1.60;99.90;;;;;;4998921;28;20044;-73
2024/01/12 06:47:23;;;;;;;7.32;2.78;;;1.50;99.90;;;;;;5020551;28;20045;-73
2024/01/12 06:49:48;;;;;;;8.43;2.55;;;1.60;99.90;;;;;;5039087;28;20042;-73
2024/01/12 06:52:14;;;;;;;5.20;2.28;;;1.70;99.90;;;;;;5006505;28;20095;-73
2024/01/12 06:54:44;;;;;;;3.38;2.22;;;1.60;99.90;;;;;;5002409;28;20077;-73
2024/01/12 06:57:10;;;;;;;7.38;2.13;;;1.60;99.90;;;;;;5034042;28;20049;-73
2024/01/12 06:59:35;;;;;;;15.45;2.78;;;1.60;99.90;;;;;;5038837;28;20052;-73
2024/01/12 07:02:01;;;;;;;3.53;1.80;;;1.60;99.90;;;;;;4994182;28;20050;-73
2024/01/12 07:04:27;;;;;;;5.13;2.40;;;1.60;99.90;;;;;;5033500;28;20077;-73
2024/01/12 07:06:52;;;;;;;14.90;4.38;;;1.60;99.90;;;;;;4994132;28;20132;-73
2024/01/12 07:09:21;;;;;;;7.55;3.67;;;1.60;99.90;;;;;;5038780;28;20045;-73
2024/01/12 07:11:47;;;;;;;4.15;2.47;;;1.70;99.90;;;;;;5006782;28;20065;-73
2024/01/12 07:14:16;;;;;;;3.88;1.75;;;1.60;99.90;;;;;;5019661;28;20050;-73
2024/01/12 07:16:42;;;;;;;3.65;1.92;;;1.70;99.90;;;;;;5025365;28;20049;-73
2024/01/12 07:19:08;;;;;;;18.20;2.67;;;1.70;99.90;;;;;;5000521;28;20107;-73
2024/01/12 07:21:34;;;;;;;5.95;2.05;;;1.70;99.90;;;;;;5016006;28;20050;-73
2024/01/12 07:24:01;;;;;;;2.75;1.67;;;1.70;99.90;;;;;;4998800;28;20493;-73
2024/01/12 07:26:26;;;;;;;3.35;1.73;;;1.70;99.90;;;;;;5035697;28;20045;-73
2024/01/12 07:28:52;;;;;;;4.60;2.15;;;1.60;99.90;;;;;;5022004;28;20041;-73
2024/01/12 07:31:18;;;;;;;4.43;2.22;;;1.60;99.90;;;;;;5020730;28;20038;-73
2024/01/12 07:33:44;;;;;;;5.18;1.90;;;1.70;99.90;;;;;;5024380;28;20042;-73
2024/01/12 07:36:10;;;;;;;10.02;2.58;;;1.70;99.90;;;;;;5019763;28;20042;-73
2024/01/12 07:38:36;;;;;;;4.00;2.05;;;1.70;99.90;;;;;;5020197;28;20045;-73
2024/01/12 07:41:02;;;;;;;2.38;1.70;;;1.70;99.90;;;;;;5018080;28;20104;-73
2024/01/12 07:43:27;;;;;;;7.65;1.60;;;1.70;99.90;;;;;;5023284;28;20042;-73
2024/01/12 07:45:53;;;;;;;2.15;1.77;;;1.70;99.90;;;;;;5001081;28;20076;-73
2024/01/12 07:48:20;;;;;;;2.28;1.98;;;1.70;99.90;;;;;;5031123;28;20130;-73
2024/01/12 07:50:45;;;;;;;4.85;1.90;;;1.70;99.90;;;;;;5003475;28;20042;-73
2024/01/12 07:53:11;;;;;;;6.75;2.08;;;1.70;99.90;;;;;;5002573;28;20612;-73
2024/01/12 07:55:37;;;;;;;6.53;2.65;;;1.70;99.90;;;;;;5001512;28;20042;-73
2024/01/12 07:58:03;;;;;;;3.55;2.28;;;1.70;99.90;;;;;;5038648;28;20072;-73
2024/01/12 08:00:29;;;;;;;3.42;1.98;;;1.70;99.90;;;;;;5023295;28;20041;-73
2024/01/12 08:02:55;;;;;;;4.78;2.17;;;1.80;99.90;;;;;;5035162;28;20037;-73
2024/01/12 08:05:22;;;;;;;1.67;1.58;;;1.80;99.90;;;;;;4991709;28;20095;-73
2024/01/12 08:07:48;;;;;;;7.95;2.38;;;1.80;99.90;;;;;;5005485;28;20045;-73
2024/01/12 08:10:15;;;;;;;6.43;1.95;;;1.80;99.90;;;;;;5022452;28;20050;-73
2024/01/12 08:12:41;;;;;;;2.78;2.35;;;1.80;99.90;;;;;;4988776;28;20113;-73
2024/01/12 08:15:09;;;;;;;5.47;1.73;;;1.80;99.90;;;;;;4995068;28;20061;-73
2024/01/12 08:17:37;;;;;;;13.30;2.88;;;1.80;99.90;;;;;;5023304;28;20057;-73
2024/01/12 08:20:03;;;;;;;7.60;2.80;;;1.90;99.90;;;;;;5022152;28;20046;-73
2024/01/12 08:22:29;;;;;;;5.75;2.63;;;1.90;99.90;;;;;;5023057;28;20574;-73
2024/01/12 08:24:55;;;;;;;5.78;2.80;;;1.90;99.90;;;;;;5023183;28;20073;-73
2024/01/12 08:27:20;;;;;;;2.92;1.85;;;1.90;99.90;;;;;;5039016;28;20500;-73
2024/01/12 08:29:46;;;;;;;11.95;2.45;;;1.90;99.90;;;;;;5039293;28;20207;-73
2024/01/12 08:32:12;;;;;;;9.90;2.95;;;2.00;99.90;;;;;;5038563;28;20045;-73
2024/01/12 08:34:39;;;;;;;3.92;2.38;;;2.00;99.90;;;;;;5040272;28;20077;-73
2024/01/12 08:37:06;;;;;;;3.17;2.75;;;2.00;99.90;;;;;;4998549;28;20568;-73
2024/01/12 08:39:32;;;;;;;11.00;3.05;;;1.90;99.90;;;;;;5021435;28;20060;-73
2024/01/12 08:41:58;;;;;;;9.18;2.55;;;2.00;99.90;;;;;;5021856;28;20053;-73
2024/01/12 08:44:24;;;;;;;5.00;2.95;;;2.10;99.90;;;;;;5013183;28;20071;-73
2024/01/12 08:46:52;;;;;;;3.13;2.08;;;2.10;99.90;;;;;;5017671;28;20056;-73
2024/01/12 08:49:21;;;;;;;10.77;2.97;;;2.10;99.90;;;;;;5012148;28;20097;-73
2024/01/12 08:51:51;;;;;;;9.50;2.70;;;2.10;99.90;;;;;;5022338;28;20045;-73
2024/01/12 08:54:17;;;;;;;4.13;2.03;;;2.10;99.90;;;;;;5020847;28;20064;-73
2024/01/12 08:56:42;;;;;;;6.10;2.40;;;2.10;99.90;;;;;;5023499;28;20049;-73
2024/01/12 08:59:09;;;;;;;3.55;2.60;;;2.10;99.90;;;;;;4989009;28;20029;-73
2024/01/12 09:01:35;;;;;;;8.13;3.47;;;2.10;99.90;;;;;;5021804;28;20080;-73
2024/01/12 09:04:01;;;;;;;3.50;1.88;;;2.20;99.90;;;;;;5006279;28;20045;-73
2024/01/12 09:06:28;;;;;;;8.68;2.90;;;2.20;99.90;;;;;;5018535;28;20060;-73
2024/01/12 09:08:56;;;;;;;2.70;2.13;;;2.30;99.90;;;;;;5002406;28;20132;-73
2024/01/12 09:11:22;;;;;;;13.50;2.83;;;2.20;99.90;;;;;;5015102;28;20080;-73
2024/01/12 09:13:48;;;;;;;5.00;1.85;;;2.30;99.90;;;;;;5006284;28;20037;-73
2024/01/12 09:16:15;;;;;;;10.52;2.80;;;2.30;99.90;;;;;;5004915;28;20059;-73
2024/01/12 09:18:43;;;;;;;3.38;2.50;;;2.30;99.90;;;;;;5002301;28;20045;-74
2024/01/12 09:21:09;;;;;;;12.95;3.63;;;2.30;99.90;;;;;;5021212;28;20492;-73
2024/01/12 09:23:35;;;;;;;3.75;2.13;;;2.40;99.90;;;;;;5014359;28;20122;-73
2024/01/12 09:26:01;;;;;;;11.27;2.35;;;2.40;99.90;;;;;;5029367;28;20416;-74
2024/01/12 09:28:26;;;;;;;15.45;2.60;;;2.40;99.90;;;;;;4998768;28;20033;-74
2024/01/12 09:30:52;;;;;;;5.35;2.00;;;2.40;99.90;;;;;;4999928;28;20789;-73
2024/01/12 09:33:17;;;;;;;3.30;1.85;;;2.50;99.90;;;;;;5016981;28;20073;-73
2024/01/12 09:35:43;;;;;;;7.30;2.42;;;2.50;99.90;;;;;;4989071;28;20033;-73
2024/01/12 09:38:09;;;;;;;4.57;2.25;;;2.50;99.90;;;;;;5017554;28;20041;-74
2024/01/12 09:40:34;;;;;;;5.13;2.45;;;2.60;99.90;;;;;;5017194;28;20079;-73
2024/01/12 09:43:01;;;;;;;13.88;2.40;;;2.60;99.90;;;;;;5016979;28;20164;-73
2024/01/12 09:45:27;;;;;;;5.07;2.33;;;2.60;99.90;;;;;;5015387;28;20508;-73
2024/01/12 09:47:53;;;;;;;5.28;3.13;;;2.70;99.90;;;;;;5032989;28;20037;-73
2024/01/12 09:50:23;;;;;;;7.95;2.40;;;2.70;99.90;;;;;;4998164;28;20493;-73
2024/01/12 09:52:50;;;;;;;12.07;2.53;;;2.70;99.90;;;;;;5017322;28;20048;-74
2024/01/12 09:55:16;;;;;;;9.23;2.70;;;2.70;99.90;;;;;;5014715;28;20050;-73
2024/01/12 09:57:44;;;;;;;9.18;3.40;;;2.80;99.90;;;;;;5047208;28;20073;-74
2024/01/12 10:00:11;;;;;;;9.98;2.80;;;2.80;99.90;;;;;;5016903;28;20041;-73
2024/01/12 10:02:37;;;;;;;6.15;2.22;;;2.80;99.90;;;;;;5002960;28;20153;-73
2024/01/12 10:05:02;;;;;;;5.25;2.35;;;2.90;99.90;;;;;;5038669;28;20034;-73
2024/01/12 10:07:28;;;;;;;7.28;2.03;;;2.90;99.90;;;;;;5015212;28;20045;-73
2024/01/12 10:09:54;;;;;;;5.28;2.70;;;2.80;99.90;;;;;;5035282;28;20048;-73
2024/01/12 10:12:19;;;;;;;5.07;2.30;;;2.90;99.90;;;;;;4984431;28;20046;-80
2024/01/12 10:14:45;;;;;;;5.50;1.90;;;2.90;99.90;;;;;;5021743;28;20057;-81
2024/01/12 10:17:13;;;;;;;7.68;2.30;;;2.90;99.90;;;;;;5024149;28;20060;-80
2024/01/12 10:19:41;;;;;;;9.18;3.08;;;3.00;99.90;;;;;;5023937;28;20046;-80
2024/01/12 10:22:13;;;;;;;6.85;2.35;;;3.10;99.90;;;;;;5041043;28;20071;-80
2024/01/12 10:24:38;;;;;;;12.10;3.00;;;3.10;99.90;;;;;;5013272;28;20046;-80
2024/01/12 10:27:05;;;;;;;8.15;2.65;;;3.10;99.90;;;;;;5002993;28;20037;-81
2024/01/12 10:29:30;;;;;;;3.80;2.50;;;3.20;99.90;;;;;;5009374;28;20443;-81
2024/01/12 10:31:56;;;;;;;7.53;2.63;;;3.20;99.90;;;;;;5041444;28;20049;-81
2024/01/12 10:34:24;;;;;;;6.28;1.83;;;3.20;99.90;;;;;;5009821;28;20045;-81
2024/01/12 10:36:57;;;;;;;8.60;2.22;;;3.30;99.90;;;;;;5006716;28;20049;-81
2024/01/12 10:39:25;;;;;;;5.18;2.17;;;3.30;99.90;;;;;;5020756;28;20150;-81
2024/01/12 10:41:52;;;;;;;6.85;2.13;;;3.40;99.90;;;;;;5019082;28;20554;-81
2024/01/12 10:44:20;;;;;;;8.88;1.70;;;3.40;99.90;;;;;;5008926;28;20042;-81
2024/01/12 10:46:48;;;;;;;6.70;1.80;;;3.50;99.90;;;;;;5023651;28;20060;-81
2024/01/12 10:49:18;;;;;;;7.95;2.13;;;3.60;99.90;;;;;;5022281;28;20085;-81
2024/01/12 10:52:12;;;;;;;3.70;2.17;;;3.60;99.90;;;;;;5034039;28;20421;-81
2024/01/12 10:54:57;;;;;;;5.00;1.75;;;3.60;99.90;;;;;;5028695;28;20041;-81
2024/01/12 10:57:24;;;;;;;5.32;1.77;;;3.70;99.90;;;;;;5016784;28;20076;-82
2024/01/12 10:59:50;;;;;;;6.60;2.03;;;3.70;99.90;;;;;;5006000;28;20077;-82
2024/01/12 11:02:16;;;;;;;2.60;2.40;;;3.70;99.90;;;;;;5018020;28;20108;-82
2024/01/12 11:04:42;;;;;;;8.98;2.03;;;3.80;99.90;;;;;;5038252;28;20049;-82
2024/01/12 11:07:09;;;;;;;7.43;1.73;;;3.90;99.90;;;;;;5006007;28;20046;-82
2024/01/12 11:09:35;;;;;;;9.93;1.80;;;3.90;99.90;;;;;;5008724;28;20033;-82
2024/01/12 11:12:14;;;;;;;10.07;1.90;;;4.00;99.90;;;;;;5007871;28;20038;-82
2024/01/12 11:14:41;;;;;;;6.68;1.38;;;4.10;99.90;;;;;;5018822;28;20046;-83
2024/01/12 11:17:06;;;;;;;4.22;1.83;;;4.10;99.90;;;;;;5023317;28;20053;-82
2024/01/12 11:19:33;;;;;;;8.48;2.03;;;4.10;99.90;;;;;;5026131;28;20130;-81
2024/01/12 11:22:03;;;;;;;11.25;2.63;;;4.20;99.90;;;;;;5008598;28;20083;-81
2024/01/12 11:24:29;;;;;;;5.47;1.55;;;4.20;99.90;;;;;;5021092;28;20046;-81
2024/01/12 11:26:55;;;;;;;8.73;1.55;;;4.20;99.90;;;;;;5010365;28;20056;-80
2024/01/12 11:29:21;;;;;;;7.85;1.42;;;4.30;99.90;;;;;;5005856;28;20400;-82
2024/01/12 11:31:53;;;;;;;7.18;1.27;;;4.30;99.90;;;;;;5038312;28;20049;-82
2024/01/12 11:34:19;;;;;;;4.60;1.88;;;4.40;99.90;;;;;;5007272;28;20057;-81
2024/01/12 11:36:45;;;;;;;3.17;1.08;;;4.40;99.90;;;;;;5001787;28;20464;-81
2024/01/12 11:39:11;;;;;;;5.03;1.20;;;4.50;99.90;;;;;;5022709;28;20088;-73
2024/01/12 11:41:43;;;;;;;5.90;0.98;;;4.50;99.90;;;;;;5023802;28;20114;-73
2024/01/12 11:44:09;;;;;;;5.47;1.23;;;4.50;99.90;;;;;;5036285;28;20103;-73
2024/01/12 11:46:35;;;;;;;3.80;1.17;;;4.50;99.90;;;;;;4991725;28;20096;-74
2024/01/12 11:49:03;;;;;;;7.32;1.85;;;4.50;99.90;;;;;;5006763;28;20048;-75
2024/01/12 11:51:29;;;;;;;4.35;0.85;;;4.50;99.90;;;;;;5042026;28;20059;-75
2024/01/12 11:53:57;;;;;;;8.13;1.58;;;4.50;99.90;;;;;;5040665;28;20089;-75
2024/01/12 11:56:27;;;;;;;4.35;0.82;;;4.50;99.90;;;;;;5024886;28;20040;-75
2024/01/12 11:58:54;;;;;;;13.38;2.17;;;4.50;99.90;;;;;;5040018;28;20053;-75
2024/01/12 12:01:20;;;;;;;5.13;1.42;;;4.60;99.90;;;;;;5007471;28;20037;-75
2024/01/12 12:03:46;;;;;;;7.32;1.35;;;4.60;99.90;;;;;;5024094;28;20448;-75
2024/01/12 12:06:12;;;;;;;9.13;1.42;;;4.60;99.90;;;;;;5001608;28;20109;-75
2024/01/12 12:08:42;;;;;;;6.18;1.67;;;4.70;99.90;;;;;;5019156;28;20540;-75
2024/01/12 12:11:08;;;;;;;0.68;0.47;;;4.70;99.90;;;;;;5015657;28;20583;-75
2024/01/12 12:13:35;;;;;;;7.95;1.27;;;4.70;99.90;;;;;;5006349;28;20041;-84
2024/01/12 12:16:01;;;;;;;4.32;0.93;;;4.70;99.90;;;;;;5021744;28;20061;-83
2024/01/12 12:18:29;;;;;;;7.13;0.65;;;4.70;99.90;;;;;;5005912;28;20105;-82
2024/01/12 12:20:54;;;;;;;1.58;0.52;;;4.60;99.90;;;;;;5038460;28;20037;-83
2024/01/12 12:23:20;;;;;;;4.65;2.03;;;4.60;99.90;;;;;;5021751;28;20063;-82
2024/01/12 12:25:47;;;;;;;7.90;1.25;;;4.70;99.90;;;;;;4984311;28;20045;-82
2024/01/12 12:28:13;;;;;;;6.95;1.02;;;4.70;99.90;;;;;;5020453;28;20040;-82
2024/01/12 12:30:42;;;;;;;5.43;1.48;;;4.80;99.90;;;;;;5003241;28;20796;-82
2024/01/12 12:33:10;;;;;;;13.10;1.75;;;4.70;99.90;;;;;;5037516;28;20086;-83
2024/01/12 12:35:35;;;;;;;11.40;1.73;;;4.80;99.90;;;;;;5023586;28;20073;-83
2024/01/12 12:38:02;;;;;;;9.52;1.30;;;4.80;99.90;;;;;;5001714;28;20413;-83
2024/01/12 12:40:28;;;;;;;5.03;1.05;;;4.80;99.90;;;;;;5012748;28;20042;-83
2024/01/12 12:42:54;;;;;;;3.40;0.88;;;4.80;99.90;;;;;;5012663;28;20166;-83
2024/01/12 12:45:20;;;;;;;5.70;1.10;;;4.90;99.90;;;;;;4983579;28;20499;-82
2024/01/12 12:47:46;;;;;;;6.00;1.45;;;4.80;99.90;;;;;;5022457;28;20033;-83
2024/01/12 12:50:12;;;;;;;4.40;0.68;;;4.90;99.90;;;;;;5021370;28;20037;-83